Time;durP1;ratioP1;P1;durP2;ratioP2;P2;SDS_P1;SDS_P2;PMS_P1;PMS_P2;Temp;Humidity;BMP_temperature;BMP_pressure;BME280_temperature;BME280_humidity;BME280_pressure;Samples;Min_cycle;Max_cycle;Signal;HPM_P1;HPM_P2
2022/01/15 00:00:38;;;;;;;93.07;33.10;;;;;;;3.27;100.00;103237.53;5263699;28;20020;-72
2022/01/15 00:03:12;;;;;;;92.07;33.10;;;;;;;3.26;100.00;103241.13;5263497;28;20020;-72
2022/01/15 00:05:42;;;;;;;99.28;32.15;;;;;;;3.23;100.00;103238.56;5280530;28;20480;-73
2022/01/15 00:08:13;;;;;;;100.20;33.97;;;;;;;3.23;100.00;103227.97;5283679;28;20024;-73
2022/01/15 00:10:43;;;;;;;92.10;31.50;;;;;;;3.23;100.00;103229.75;5277774;28;20380;-73
2022/01/15 00:13:24;;;;;;;96.28;35.53;;;;;;;3.23;100.00;103221.78;5276813;28;20118;-73
2022/01/15 00:18:47;;;;;;;106.25;37.10;;;;;;;3.26;100.00;103225.19;5262479;28;20027;-73
2022/01/15 00:21:17;;;;;;;109.35;37.97;;;;;;;3.28;100.00;103222.47;5276712;28;20063;-73
2022/01/15 00:23:48;;;;;;;100.80;34.85;;;;;;;3.28;100.00;103212.72;5276571;28;20111;-74
2022/01/15 00:26:18;;;;;;;96.45;34.90;;;;;;;3.28;100.00;103207.41;5269687;28;20027;-73
2022/01/15 00:28:49;;;;;;;90.93;33.40;;;;;;;3.29;100.00;103210.94;5283471;27;20028;-73
2022/01/15 00:31:20;;;;;;;96.57;33.35;;;;;;;3.26;100.00;103213.69;5267398;28;20024;-72
2022/01/15 00:33:51;;;;;;;84.60;32.40;;;;;;;3.23;100.00;103204.09;5262716;28;20034;-72
2022/01/15 00:36:21;;;;;;;90.18;32.85;;;;;;;3.23;100.00;103208.53;5266131;28;20035;-74
2022/01/15 00:38:51;;;;;;;89.50;32.33;;;;;;;3.20;100.00;103204.19;5286575;28;20011;-73
2022/01/15 00:41:22;;;;;;;95.85;32.15;;;;;;;3.22;100.00;103199.72;5269716;28;20051;-73
2022/01/15 00:43:53;;;;;;;95.47;33.00;;;;;;;3.23;100.00;103197.94;5288312;28;20099;-73
2022/01/15 00:46:23;;;;;;;97.82;33.70;;;;;;;3.24;100.00;103197.00;5274045;28;20055;-73
2022/01/15 00:48:53;;;;;;;94.88;33.72;;;;;;;3.25;100.00;103191.63;5287623;28;20059;-73
2022/01/15 00:51:25;;;;;;;103.40;35.45;;;;;;;3.26;100.00;103185.41;5280228;27;20027;-73
2022/01/15 00:53:55;;;;;;;94.40;34.50;;;;;;;3.25;100.00;103183.66;5279720;28;20032;-72
2022/01/15 00:56:26;;;;;;;94.88;34.80;;;;;;;3.21;100.00;103187.34;5265553;28;20027;-73
2022/01/15 00:58:56;;;;;;;87.80;30.23;;;;;;;3.22;100.00;103185.59;5280210;28;20055;-73
2022/01/15 01:01:27;;;;;;;88.47;31.73;;;;;;;3.21;100.00;103175.88;5266828;28;20032;-73
2022/01/15 01:03:57;;;;;;;103.07;35.03;;;;;;;3.21;100.00;103178.53;5284543;28;20488;-73
2022/01/15 01:06:28;;;;;;;90.95;33.30;;;;;;;3.20;100.00;103172.38;5287076;28;20031;-73
2022/01/15 01:08:58;;;;;;;84.53;31.65;;;;;;;3.21;100.00;103184.69;5286262;28;20045;-73
2022/01/15 01:25:28;;;;;;;83.28;28.83;;;;;;;3.17;100.00;103159.25;5279981;28;20435;-73
2022/01/15 01:28:06;;;;;;;88.20;31.50;;;;;;;3.18;100.00;103155.66;5280641;28;20069;-72
2022/01/15 01:41:20;;;;;;;75.78;28.23;;;;;;;3.19;100.00;103154.72;5273787;28;20015;-74
2022/01/15 01:48:56;;;;;;;92.85;34.10;;;;;;;3.20;100.00;103143.19;5270289;28;20039;-72
2022/01/15 01:51:45;;;;;;;88.07;33.42;;;;;;;3.19;100.00;103130.84;5269916;28;20104;-72
2022/01/15 01:54:18;;;;;;;95.28;34.70;;;;;;;3.18;100.00;103131.78;5282653;28;20020;-73
2022/01/15 01:56:50;;;;;;;90.15;32.67;;;;;;;3.17;100.00;103127.41;5275489;28;20039;-73
2022/01/15 01:59:21;;;;;;;100.45;33.42;;;;;;;3.19;100.00;103119.38;5278806;28;20020;-73
2022/01/15 02:01:51;;;;;;;92.50;33.67;;;;;;;3.17;100.00;103113.28;5278268;28;20025;-72
2022/01/15 02:04:22;;;;;;;98.13;33.55;;;;;;;3.17;100.00;103114.16;5284190;28;20380;-73
2022/01/15 02:06:57;;;;;;;110.32;36.65;;;;;;;3.22;100.00;103106.88;5283177;28;20561;-72
2022/01/15 02:09:28;;;;;;;106.30;36.38;;;;;;;3.23;100.00;103107.72;5274507;28;20095;-72
2022/01/15 02:12:09;;;;;;;119.32;38.35;;;;;;;3.23;100.00;103103.28;5283870;28;20024;-73
2022/01/15 02:14:40;;;;;;;121.13;39.30;;;;;;;3.22;100.00;103106.88;5284119;28;20079;-73
2022/01/15 02:17:12;;;;;;;116.78;40.63;;;;;;;3.22;100.00;103106.88;5283062;28;20031;-73
2022/01/15 02:20:08;;;;;;;118.95;39.53;;;;;;;3.23;100.00;103113.03;5284398;28;20023;-73
2022/01/15 02:25:56;;;;;;;118.70;39.58;;;;;;;3.23;100.00;103113.88;5270744;28;20038;-73
2022/01/15 02:28:29;;;;;;;117.88;40.00;;;;;;;3.23;100.00;103111.25;5281129;28;20085;-73
2022/01/15 02:31:22;;;;;;;130.90;41.75;;;;;;;3.21;100.00;103102.47;5284571;27;20023;-73
2022/01/15 02:33:55;;;;;;;120.68;40.55;;;;;;;3.19;100.00;103104.31;5272967;28;20398;-73
2022/01/15 02:36:29;;;;;;;131.63;40.42;;;;;;;3.18;100.00;103099.97;5283951;28;20102;-73
2022/01/15 02:39:00;;;;;;;125.97;41.95;;;;;;;3.18;100.00;103110.56;5274180;28;20027;-73
2022/01/15 02:41:34;;;;;;;135.75;40.47;;;;;;;3.16;100.00;103103.59;5283702;28;20019;-72
2022/01/15 02:44:14;;;;;;;124.35;41.03;;;;;;;3.10;100.00;103102.03;5271594;28;20040;-72
2022/01/15 02:49:30;;;;;;;141.52;42.70;;;;;;;3.00;100.00;103096.25;5266476;28;20032;-73
2022/01/15 02:52:00;;;;;;;133.50;42.97;;;;;;;2.88;100.00;103091.47;5286678;28;20495;-73
2022/01/15 02:54:32;;;;;;;148.63;41.63;;;;;;;2.93;100.00;103088.63;5278886;28;20032;-73
2022/01/15 02:57:06;;;;;;;144.30;43.22;;;;;;;2.96;100.00;103088.47;5266127;28;20101;-72
2022/01/15 02:59:37;;;;;;;139.80;41.90;;;;;;;2.97;100.00;103091.09;5277121;28;20038;-73
2022/01/15 03:02:08;;;;;;;140.68;40.83;;;;;;;2.93;100.00;103081.53;5281180;28;20492;-72
2022/01/15 03:04:38;;;;;;;138.02;42.83;;;;;;;2.94;100.00;103074.44;5275578;28;20024;-72
2022/01/15 03:07:09;;;;;;;135.15;42.22;;;;;;;2.97;100.00;103069.03;5267174;28;20463;-73
2022/01/15 03:09:40;;;;;;;147.02;41.78;;;;;;;2.97;100.00;103069.88;5285530;28;20114;-73
2022/01/15 03:12:11;;;;;;;142.75;42.58;;;;;;;2.96;100.00;103061.97;5280641;28;20020;-73
2022/01/15 03:14:44;;;;;;;139.95;41.97;;;;;;;2.96;100.00;103052.25;5277034;28;20031;-73
2022/01/15 03:17:15;;;;;;;155.60;42.30;;;;;;;2.93;100.00;103057.66;5271851;28;20066;-73
2022/01/15 03:19:46;;;;;;;143.07;43.58;;;;;;;2.97;100.00;103047.81;5270831;28;20488;-73
2022/01/15 03:22:16;;;;;;;157.45;43.85;;;;;;;2.97;100.00;103045.16;5264641;28;20024;-73
2022/01/15 03:24:48;;;;;;;160.10;44.85;;;;;;;2.95;100.00;103047.00;5263971;28;20048;-73
2022/01/15 03:27:21;;;;;;;145.18;43.25;;;;;;;2.91;100.00;103038.28;5280273;28;20072;-73
2022/01/15 03:29:52;;;;;;;167.88;46.30;;;;;;;2.90;100.00;103047.19;5283023;28;20048;-73
2022/01/15 03:32:22;;;;;;;151.90;42.63;;;;;;;2.79;100.00;103042.31;5264177;28;20532;-73
2022/01/15 03:34:53;;;;;;;152.00;44.58;;;;;;;2.77;100.00;103045.97;5268588;28;20062;-73
2022/01/15 03:37:23;;;;;;;148.73;44.83;;;;;;;2.72;100.00;103042.66;5285549;28;20020;-73
2022/01/15 03:39:53;;;;;;;156.65;47.15;;;;;;;2.71;100.00;103046.19;5266384;27;20541;-73
2022/01/15 03:42:24;;;;;;;139.90;41.25;;;;;;;2.64;100.00;103039.44;5277845;28;20493;-73
2022/01/15 03:44:55;;;;;;;134.90;42.20;;;;;;;2.55;100.00;103041.50;5271234;28;20096;-73
2022/01/15 03:47:25;;;;;;;147.30;42.33;;;;;;;2.56;100.00;103039.72;5284970;27;20114;-73
2022/01/15 03:49:56;;;;;;;150.68;43.58;;;;;;;2.55;100.00;103035.34;5285161;28;20020;-73
2022/01/15 03:52:26;;;;;;;146.60;44.97;;;;;;;2.50;100.00;103040.81;5284996;28;20030;-73
2022/01/15 03:54:57;;;;;;;159.73;46.13;;;;;;;2.46;100.00;103027.75;5285203;28;20020;-73
2022/01/15 03:57:27;;;;;;;158.75;45.25;;;;;;;2.43;100.00;103025.25;5267106;28;20055;-72
2022/01/15 04:00:00;;;;;;;158.23;43.92;;;;;;;2.46;100.00;103026.00;5264042;28;20472;-72
2022/01/15 04:02:30;;;;;;;157.45;46.35;;;;;;;2.50;100.00;103026.72;5264085;28;20023;-73
2022/01/15 04:05:01;;;;;;;162.30;46.45;;;;;;;2.52;100.00;103019.59;5263506;28;20065;-73
2022/01/15 04:07:31;;;;;;;135.75;43.50;;;;;;;2.55;100.00;103011.50;5283363;28;20046;-73
2022/01/15 04:10:05;;;;;;;151.60;44.60;;;;;;;2.54;100.00;103018.59;5270408;28;20456;-73
2022/01/15 04:12:35;;;;;;;149.00;44.53;;;;;;;2.53;100.00;103010.72;5271981;28;20051;-73
2022/01/15 04:15:08;;;;;;;145.60;45.03;;;;;;;2.43;100.00;103006.69;5284862;28;20062;-73
2022/01/15 04:17:39;;;;;;;163.18;48.00;;;;;;;2.46;100.00;103001.25;5285047;28;20024;-73
2022/01/15 04:20:11;;;;;;;157.65;45.58;;;;;;;2.45;100.00;103007.50;5270575;28;20016;-73
2022/01/15 04:22:42;;;;;;;158.07;47.58;;;;;;;2.47;100.00;103000.38;5273437;28;20532;-73
2022/01/15 04:25:12;;;;;;;146.50;46.08;;;;;;;2.52;100.00;103004.56;5277514;28;20024;-73
2022/01/15 04:27:44;;;;;;;146.95;45.42;;;;;;;2.56;100.00;103005.28;5263795;28;20028;-73
2022/01/15 04:30:16;;;;;;;144.85;46.15;;;;;;;2.53;100.00;103003.63;5270192;28;20051;-74
2022/01/15 04:32:46;;;;;;;148.35;44.63;;;;;;;2.54;100.00;102996.53;5284690;28;20063;-74
2022/01/15 04:35:17;;;;;;;138.05;43.60;;;;;;;2.52;100.00;102986.00;5274749;28;20769;-73
2022/01/15 04:37:52;;;;;;;142.52;42.40;;;;;;;2.53;100.00;102990.38;5279221;28;20019;-73
2022/01/15 04:40:22;;;;;;;152.90;46.25;;;;;;;2.43;100.00;102989.03;5284358;28;20480;-73
2022/01/15 04:42:53;;;;;;;152.40;45.75;;;;;;;2.43;100.00;102981.06;5279830;28;20028;-73
2022/01/15 04:45:23;;;;;;;159.02;45.17;;;;;;;2.47;100.00;102981.81;5263125;28;20504;-74
2022/01/15 04:47:54;;;;;;;152.93;46.25;;;;;;;2.53;100.00;102984.22;5263227;28;20107;-73
2022/01/15 04:50:24;;;;;;;156.32;43.38;;;;;;;2.54;100.00;102972.69;5271106;28;20020;-74
2022/01/15 04:52:55;;;;;;;154.57;43.17;;;;;;;2.58;100.00;102972.50;5277397;28;20036;-73
2022/01/15 04:55:25;;;;;;;145.45;44.65;;;;;;;2.65;100.00;102969.59;5263939;28;20028;-74
2022/01/15 04:57:56;;;;;;;151.30;44.60;;;;;;;2.64;100.00;102965.22;5284878;28;20027;-73
2022/01/15 05:00:26;;;;;;;169.32;47.45;;;;;;;2.65;100.00;102962.50;5270500;28;20049;-72
2022/01/15 05:02:57;;;;;;;151.45;42.38;;;;;;;2.68;100.00;102956.22;5275110;28;20082;-73
2022/01/15 05:05:28;;;;;;;154.82;43.33;;;;;;;2.62;100.00;102945.88;5276711;28;20473;-73
2022/01/15 05:07:58;;;;;;;144.50;41.95;;;;;;;2.59;100.00;102952.16;5272405;28;20048;-72
2022/01/15 05:10:29;;;;;;;157.65;43.20;;;;;;;2.56;100.00;102944.31;5283914;28;20024;-73
2022/01/15 05:13:02;;;;;;;154.45;44.97;;;;;;;2.56;100.00;102949.63;5272410;28;20024;-73
2022/01/15 05:15:32;;;;;;;150.65;44.90;;;;;;;2.56;100.00;102949.63;5268477;28;20020;-73
2022/01/15 05:18:03;;;;;;;155.30;41.67;;;;;;;2.54;100.00;102946.19;5284173;28;20023;-73
2022/01/15 05:20:34;;;;;;;159.48;42.45;;;;;;;2.47;100.00;102947.38;5276299;28;20031;-73
2022/01/15 05:23:04;;;;;;;155.57;42.05;;;;;;;2.46;100.00;102940.31;5264274;28;20034;-72
2022/01/15 05:25:35;;;;;;;147.15;43.95;;;;;;;2.45;100.00;102928.00;5277544;28;20469;-72
2022/01/15 05:28:07;;;;;;;155.02;43.80;;;;;;;2.41;100.00;102929.06;5266732;28;20435;-73
2022/01/15 05:30:38;;;;;;;158.48;42.15;;;;;;;2.38;100.00;102929.19;5266705;28;20027;-72
2022/01/15 05:33:08;;;;;;;166.93;43.47;;;;;;;2.35;100.00;102927.53;5280596;28;20107;-73
2022/01/15 05:35:39;;;;;;;142.55;39.40;;;;;;;2.23;100.00;102928.91;5266921;28;20028;-72
2022/01/15 05:38:09;;;;;;;157.73;41.20;;;;;;;2.26;100.00;102926.13;5280274;28;20065;-72
2022/01/15 05:40:41;;;;;;;151.73;39.58;;;;;;;2.26;100.00;102930.53;5266524;28;20460;-73
2022/01/15 05:43:12;;;;;;;142.07;38.03;;;;;;;2.28;100.00;102926.06;5280393;28;20489;-73
2022/01/15 05:45:42;;;;;;;159.32;39.97;;;;;;;2.26;100.00;102914.66;5279905;28;20076;-72
2022/01/15 05:48:13;;;;;;;160.63;40.97;;;;;;;2.28;100.00;102916.31;5287544;28;20334;-72
2022/01/15 05:50:43;;;;;;;151.38;39.95;;;;;;;2.25;100.00;102911.13;5287189;28;20019;-72
2022/01/15 05:53:14;;;;;;;157.88;42.17;;;;;;;2.26;100.00;102907.59;5278136;28;20477;-72
2022/01/15 05:55:44;;;;;;;177.88;41.35;;;;;;;2.26;100.00;102901.41;5266440;28;20028;-71
2022/01/15 05:58:15;;;;;;;167.55;39.70;;;;;;;2.24;100.00;102905.91;5266124;28;20024;-71
2022/01/15 06:00:47;;;;;;;165.68;40.70;;;;;;;2.23;100.00;102894.47;5264019;28;20028;-71
2022/01/15 06:03:18;;;;;;;172.35;39.38;;;;;;;2.23;100.00;102902.41;5272877;28;20016;-72
2022/01/15 06:05:48;;;;;;;162.30;43.08;;;;;;;2.20;100.00;102897.22;5284720;28;20446;-71
2022/01/15 06:08:19;;;;;;;147.63;39.08;;;;;;;2.20;100.00;102896.38;5284640;28;20019;-71
2022/01/15 06:10:49;;;;;;;140.05;38.83;;;;;;;2.18;100.00;102896.44;5269424;28;20047;-71
2022/01/15 06:13:20;;;;;;;169.90;40.65;;;;;;;2.22;100.00;102900.69;5284534;27;20038;-72
2022/01/15 06:15:50;;;;;;;169.20;39.78;;;;;;;2.22;100.00;102910.44;5284647;28;20023;-72
2022/01/15 06:18:21;;;;;;;152.43;39.85;;;;;;;2.19;100.00;102911.41;5285078;28;20124;-72
2022/01/15 06:20:51;;;;;;;152.60;39.22;;;;;;;2.22;100.00;102911.28;5274044;28;20085;-73
2022/01/15 06:23:22;;;;;;;165.50;40.55;;;;;;;2.24;100.00;102912.06;5267426;28;20027;-72
2022/01/15 06:25:52;;;;;;;159.02;40.35;;;;;;;2.26;100.00;102919.94;5273400;27;20024;-72
2022/01/15 06:28:23;;;;;;;157.68;40.80;;;;;;;2.29;100.00;102906.59;5281595;28;20615;-71
2022/01/15 06:30:54;;;;;;;186.15;42.08;;;;;;;2.26;100.00;102902.28;5284483;28;20290;-73
2022/01/15 06:33:24;;;;;;;149.02;38.92;;;;;;;2.20;100.00;102910.47;5283422;28;20429;-72
2022/01/15 06:35:55;;;;;;;141.85;35.58;;;;;;;2.11;100.00;102905.56;5283409;28;20031;-72
2022/01/15 06:38:26;;;;;;;143.45;36.90;;;;;;;2.11;100.00;102902.03;5276577;28;20020;-73
2022/01/15 06:40:56;;;;;;;167.02;38.88;;;;;;;2.10;100.00;102895.88;5263081;28;20166;-73
2022/01/15 06:43:27;;;;;;;153.63;38.35;;;;;;;2.07;100.00;102893.38;5272308;28;20524;-73
2022/01/15 06:45:57;;;;;;;162.35;38.72;;;;;;;1.97;100.00;102894.66;5269738;28;20050;-73
2022/01/15 06:48:29;;;;;;;170.05;38.70;;;;;;;1.96;100.00;102903.53;5284017;28;20024;-73
2022/01/15 06:50:59;;;;;;;155.23;39.13;;;;;;;1.99;100.00;102908.69;5279764;27;20020;-72
2022/01/15 06:53:30;;;;;;;151.27;38.92;;;;;;;2.01;100.00;102902.41;5263200;28;20024;-73
2022/01/15 06:56:00;;;;;;;157.20;38.53;;;;;;;1.89;100.00;102907.31;5281914;28;20496;-73
2022/01/15 06:58:31;;;;;;;165.70;38.70;;;;;;;1.79;100.00;102907.66;5283309;28;20030;-73
2022/01/15 07:01:01;;;;;;;148.02;36.35;;;;;;;1.69;100.00;102902.78;5283617;28;20031;-73
2022/01/15 07:03:32;;;;;;;165.93;37.50;;;;;;;1.69;100.00;102908.09;5283991;27;20034;-73
2022/01/15 07:06:03;;;;;;;171.88;37.63;;;;;;;1.67;100.00;102907.28;5283406;28;20386;-71
2022/01/15 07:08:33;;;;;;;165.10;37.58;;;;;;;1.63;100.00;102906.53;5292557;27;20128;-72
2022/01/15 07:11:04;;;;;;;179.70;38.90;;;;;;;1.62;100.00;102904.81;5272769;28;20075;-72
2022/01/15 07:13:34;;;;;;;174.55;38.88;;;;;;;1.68;100.00;102896.63;5283845;28;20571;-72
2022/01/15 07:16:05;;;;;;;181.55;39.75;;;;;;;1.73;100.00;102897.31;5283724;28;20046;-73
2022/01/15 07:18:35;;;;;;;163.77;39.67;;;;;;;1.78;100.00;102899.78;5283605;28;20092;-72
2022/01/15 07:21:06;;;;;;;186.40;39.72;;;;;;;1.84;100.00;102899.56;5283524;28;20037;-72
2022/01/15 07:23:36;;;;;;;206.80;41.75;;;;;;;1.87;100.00;102894.16;5275628;28;20111;-72
2022/01/15 07:26:07;;;;;;;174.95;40.67;;;;;;;1.86;100.00;102900.38;5261558;28;20504;-72
2022/01/15 07:28:37;;;;;;;198.38;41.28;;;;;;;1.85;100.00;102897.75;5282078;28;20039;-72
2022/01/15 07:31:08;;;;;;;169.30;38.10;;;;;;;1.83;100.00;102895.19;5267363;28;20081;-72
2022/01/15 07:33:39;;;;;;;171.40;39.20;;;;;;;1.82;100.00;102885.53;5269480;28;20015;-72
2022/01/15 07:36:09;;;;;;;193.80;41.85;;;;;;;1.87;100.00;102886.22;5281906;28;20027;-72
2022/01/15 07:38:40;;;;;;;172.20;40.50;;;;;;;1.95;100.00;102880.59;5282681;28;20008;-72
2022/01/15 07:41:13;;;;;;;180.45;39.58;;;;;;;1.94;100.00;102873.59;5279080;28;20022;-72
2022/01/15 07:43:44;;;;;;;199.30;40.83;;;;;;;1.96;100.00;102872.63;5272708;28;20337;-72
2022/01/15 07:46:15;;;;;;;187.43;41.63;;;;;;;1.97;100.00;102869.03;5276193;28;20035;-72
2022/01/15 07:48:46;;;;;;;182.70;39.55;;;;;;;1.99;100.00;102879.56;5273173;28;20477;-73
2022/01/15 07:51:16;;;;;;;177.82;38.95;;;;;;;2.00;100.00;102876.84;5270195;28;20062;-72
2022/01/15 07:53:47;;;;;;;189.70;40.35;;;;;;;1.96;100.00;102877.06;5260824;28;20016;-72
2022/01/15 07:56:17;;;;;;;188.75;37.63;;;;;;;1.90;100.00;102880.78;5281786;28;20066;-72
2022/01/15 07:58:48;;;;;;;196.40;36.70;;;;;;;1.90;100.00;102880.78;5266325;28;20072;-72
2022/01/15 08:01:18;;;;;;;185.60;38.92;;;;;;;1.89;100.00;102883.50;5272433;28;20111;-72
2022/01/15 08:03:49;;;;;;;192.48;37.42;;;;;;;1.83;100.00;102875.81;5276598;28;20548;-72
2022/01/15 08:06:19;;;;;;;184.15;38.03;;;;;;;1.75;100.00;102879.59;5281204;28;20072;-73
2022/01/15 08:08:50;;;;;;;196.68;40.05;;;;;;;1.80;100.00;102877.63;5281364;28;20531;-72
2022/01/15 08:11:20;;;;;;;187.82;37.45;;;;;;;1.80;100.00;102871.47;5280902;28;20477;-72
2022/01/15 08:13:51;;;;;;;182.95;37.28;;;;;;;1.81;100.00;102873.22;5281234;28;20039;-72
2022/01/15 08:16:21;;;;;;;184.95;37.20;;;;;;;1.77;100.00;102875.13;5281253;28;20085;-72
2022/01/15 08:18:52;;;;;;;193.43;37.72;;;;;;;1.72;100.00;102874.44;5281402;28;20248;-72
2022/01/15 08:21:22;;;;;;;188.05;36.40;;;;;;;1.71;100.00;102877.16;5281128;28;20026;-72
2022/01/15 08:23:53;;;;;;;191.32;36.05;;;;;;;1.77;100.00;102877.78;5280296;28;20226;-72
2022/01/15 08:26:23;;;;;;;182.02;38.25;;;;;;;1.80;100.00;102877.63;5267686;28;20525;-72
2022/01/15 08:28:54;;;;;;;169.40;34.53;;;;;;;1.80;100.00;102874.13;5281239;28;20408;-72
2022/01/15 08:31:25;;;;;;;185.95;35.50;;;;;;;1.84;100.00;102880.16;5272236;28;20023;-72
2022/01/15 08:33:55;;;;;;;168.43;34.53;;;;;;;1.84;100.00;102873.09;5281428;28;20068;-72
2022/01/15 08:36:26;;;;;;;187.55;40.00;;;;;;;1.83;100.00;102881.09;5276491;28;20103;-73
2022/01/15 08:38:56;;;;;;;188.90;37.72;;;;;;;1.89;100.00;102878.19;5272204;28;20042;-72
2022/01/15 08:41:28;;;;;;;167.13;34.47;;;;;;;1.90;100.00;102875.47;5277230;28;20024;-72
2022/01/15 08:43:58;;;;;;;158.40;34.72;;;;;;;1.84;100.00;102877.53;5292032;28;20479;-72
2022/01/15 08:46:29;;;;;;;162.88;34.65;;;;;;;1.88;100.00;102885.28;5281185;27;20047;-72
2022/01/15 08:48:59;;;;;;;147.88;30.45;;;;;;;1.71;100.00;102874.50;5270641;28;20444;-72
2022/01/15 08:51:30;;;;;;;149.13;30.23;;;;;;;1.63;100.00;102874.78;5280682;28;20024;-72
2022/01/15 08:54:01;;;;;;;148.55;32.75;;;;;;;1.54;100.00;102881.28;5267784;27;20024;-72
2022/01/15 08:56:31;;;;;;;139.73;29.70;;;;;;;1.53;100.00;102881.34;5281382;28;20042;-72
2022/01/15 08:59:03;;;;;;;151.45;30.92;;;;;;;1.61;100.00;102878.41;5282846;28;20107;-72
2022/01/15 09:01:34;;;;;;;155.07;31.70;;;;;;;1.70;100.00;102878.91;5285174;28;20032;-72
2022/01/15 09:04:04;;;;;;;143.32;30.88;;;;;;;1.67;100.00;102886.13;5275440;28;20053;-72
2022/01/15 09:06:35;;;;;;;154.85;32.85;;;;;;;1.71;100.00;102883.31;5285117;28;20207;-72
2022/01/15 09:09:06;;;;;;;159.43;31.92;;;;;;;1.77;100.00;102872.47;5279038;28;20016;-72
2022/01/15 09:11:36;;;;;;;143.95;30.23;;;;;;;1.83;100.00;102876.66;5277719;28;20417;-72
2022/01/15 09:14:07;;;;;;;155.18;31.65;;;;;;;1.79;100.00;102869.75;5284022;28;20107;-72
2022/01/15 09:16:38;;;;;;;155.80;31.63;;;;;;;1.87;100.00;102878.28;5285150;28;20039;-72
2022/01/15 09:19:09;;;;;;;153.07;31.50;;;;;;;1.93;100.00;102882.47;5284812;28;20034;-72
2022/01/15 09:21:40;;;;;;;152.07;31.77;;;;;;;1.92;100.00;102868.38;5284787;28;20023;-71
2022/01/15 09:24:10;;;;;;;155.00;31.67;;;;;;;1.88;100.00;102869.41;5283445;28;20491;-72
2022/01/15 09:32:11;;;;;;;162.45;33.42;;;;;;;2.08;100.00;102855.38;5275122;28;20020;-72
2022/01/15 09:34:42;;;;;;;161.77;33.20;;;;;;;2.06;100.00;102850.13;5265872;28;20026;-72
2022/01/15 09:37:12;;;;;;;135.82;30.40;;;;;;;2.11;100.00;102854.38;5284584;28;20230;-72
2022/01/15 09:39:43;;;;;;;145.20;31.38;;;;;;;2.15;100.00;102848.88;5270791;28;20091;-72
2022/01/15 09:42:15;;;;;;;141.05;30.38;;;;;;;2.26;100.00;102846.69;5284425;28;20530;-72
2022/01/15 09:44:47;;;;;;;146.70;31.48;;;;;;;2.31;100.00;102838.53;5284352;28;20444;-72
2022/01/15 09:47:20;;;;;;;122.78;28.90;;;;;;;2.22;100.00;102833.63;5284030;28;20080;-72
2022/01/15 09:49:53;;;;;;;131.57;30.40;;;;;;;2.17;100.00;102836.47;5283394;28;20051;-72
2022/01/15 09:52:24;;;;;;;124.85;27.75;;;;;;;2.19;100.00;102836.38;5268515;28;20024;-72
2022/01/15 09:54:55;;;;;;;129.23;27.98;;;;;;;2.14;100.00;102843.66;5273034;28;20122;-72
2022/01/15 09:57:25;;;;;;;130.02;29.30;;;;;;;2.17;100.00;102839.09;5284322;28;20019;-72
2022/01/15 09:59:56;;;;;;;130.63;29.95;;;;;;;2.11;100.00;102841.13;5284258;28;20105;-72
2022/01/15 10:02:27;;;;;;;109.70;27.67;;;;;;;2.14;100.00;102841.88;5278620;28;20308;-72
2022/01/15 10:04:57;;;;;;;107.90;26.58;;;;;;;2.21;100.00;102834.53;5261407;28;20107;-72
2022/01/15 10:07:28;;;;;;;106.47;27.13;;;;;;;2.29;100.00;102832.44;5282483;28;20066;-72
2022/01/15 10:10:13;;;;;;;100.20;25.95;;;;;;;2.43;100.00;102843.31;5269576;28;20036;-72
2022/01/15 10:12:44;;;;;;;99.07;26.70;;;;;;;2.51;100.00;102854.47;5272364;28;20108;-72
2022/01/15 10:15:16;;;;;;;98.93;25.73;;;;;;;2.44;100.00;102846.81;5282990;27;20027;-72
2022/01/15 10:17:47;;;;;;;107.40;25.25;;;;;;;2.30;100.00;102845.59;5273241;28;20034;-72
2022/01/15 10:20:21;;;;;;;98.78;24.17;;;;;;;2.26;100.00;102849.31;5280774;28;20012;-72
2022/01/15 10:22:52;;;;;;;104.15;26.02;;;;;;;2.42;100.00;102853.97;5284074;28;20031;-72
2022/01/15 10:25:23;;;;;;;110.15;26.23;;;;;;;2.55;100.00;102866.63;5276494;27;20024;-72
2022/01/15 10:27:55;;;;;;;114.03;25.95;;;;;;;2.50;100.00;102852.72;5263748;28;20065;-72
2022/01/15 10:30:28;;;;;;;113.18;25.92;;;;;;;2.59;100.00;102854.97;5283911;27;20023;-72
2022/01/15 10:33:03;;;;;;;103.13;25.27;;;;;;;2.64;100.00;102849.47;5284018;28;20036;-72
2022/01/15 10:35:35;;;;;;;;;;;;;;;2.65;100.00;102851.19;5284172;28;20061;-72
2022/01/15 10:38:21;;;;;;;102.97;24.27;;;;;;;2.67;100.00;102840.53;5279162;28;19990;-72
2022/01/15 10:40:55;;;;;;;;;;;;;;;2.73;100.00;102830.53;5277410;28;20058;-72
2022/01/15 10:43:41;;;;;;;101.03;25.10;;;;;;;2.78;100.00;102833.84;5280879;28;19915;-72
2022/01/15 10:46:11;;;;;;;107.40;28.98;;;;;;;2.88;100.00;102836.09;5280289;28;20471;-72
2022/01/15 10:48:42;;;;;;;108.32;26.50;;;;;;;2.95;100.00;102829.56;5271140;28;20145;-72
2022/01/15 10:51:13;;;;;;;104.40;25.90;;;;;;;3.03;100.00;102827.44;5271143;28;20016;-72
2022/01/15 10:53:46;;;;;;;102.25;27.40;;;;;;;3.08;100.00;102823.66;5260495;28;20388;-72
2022/01/15 10:56:18;;;;;;;105.53;28.10;;;;;;;3.16;100.00;102823.28;5282628;28;20043;-72
2022/01/15 10:59:06;;;;;;;98.43;25.45;;;;;;;3.32;100.00;102821.69;5278215;28;20058;-72
2022/01/15 11:01:37;;;;;;;110.32;28.98;;;;;;;3.47;100.00;102825.41;5276336;28;20028;-72
2022/01/15 11:04:11;;;;;;;103.18;26.85;;;;;;;3.44;100.00;102827.34;5266613;28;20033;-72
2022/01/15 11:06:41;;;;;;;106.07;26.35;;;;;;;3.42;100.00;102815.94;5268787;27;20285;-72
2022/01/15 11:09:12;;;;;;;106.13;28.52;;;;;;;3.50;100.00;102808.47;5269146;27;20065;-73
2022/01/15 11:11:55;;;;;;;111.40;30.33;;;;;;;3.52;100.00;102814.56;5264295;28;20047;-72
2022/01/15 11:14:26;;;;;;;103.80;27.95;;;;;;;3.55;100.00;102811.75;5282391;28;20248;-72
2022/01/15 11:16:59;;;;;;;95.80;25.40;;;;;;;3.64;100.00;102811.31;5282865;28;20582;-72
2022/01/15 11:19:31;;;;;;;103.85;27.38;;;;;;;3.66;100.00;102806.78;5282816;28;20058;-72
2022/01/15 11:22:03;;;;;;;100.60;28.25;;;;;;;3.74;100.00;102812.59;5269039;28;20388;-72
2022/01/15 11:24:35;;;;;;;104.72;27.85;;;;;;;3.74;100.00;102812.59;5268927;28;20358;-72
2022/01/15 11:27:05;;;;;;;104.13;29.17;;;;;;;3.93;100.00;102811.72;5282159;28;20353;-72
2022/01/15 11:29:36;;;;;;;93.78;27.08;;;;;;;4.12;100.00;102804.56;5268935;27;20278;-72
2022/01/15 11:32:10;;;;;;;99.97;27.88;;;;;;;4.27;100.00;102798.47;5282842;28;20046;-72
2022/01/15 11:34:42;;;;;;;105.10;29.50;;;;;;;4.36;100.00;102794.47;5268470;28;20038;-72
2022/01/15 11:37:16;;;;;;;94.65;25.83;;;;;;;4.30;100.00;102792.13;5271198;28;20072;-73
2022/01/15 11:39:52;;;;;;;94.85;27.20;;;;;;;4.34;100.00;102791.91;5260261;28;20027;-72
2022/01/15 11:42:41;;;;;;;94.35;26.75;;;;;;;4.52;100.00;102778.59;5259940;28;20337;-73
2022/01/15 11:45:34;;;;;;;94.55;26.35;;;;;;;4.50;100.00;102776.00;5270868;28;20019;-74
2022/01/15 11:48:24;;;;;;;84.43;25.77;;;;;;;4.38;100.00;102777.53;5267951;28;20081;-72
2022/01/15 11:51:13;;;;;;;91.40;26.48;;;;;;;4.43;100.00;102771.13;5264837;28;20028;-73
2022/01/15 11:53:48;;;;;;;94.30;27.60;;;;;;;4.40;100.00;102767.66;5275050;28;20023;-73
2022/01/15 11:56:22;;;;;;;96.72;26.92;;;;;;;4.51;100.00;102774.22;5261109;28;20701;-73
2022/01/15 11:58:56;;;;;;;88.63;24.77;;;;;;;4.48;100.00;102761.97;5277054;28;20020;-73
2022/01/15 12:01:41;;;;;;;103.90;27.77;;;;;;;4.52;100.00;102757.31;5272273;28;20107;-73
2022/01/15 12:04:44;;;;;;;98.10;26.83;;;;;;;4.59;100.00;102751.63;5280627;28;20465;-73
2022/01/15 12:07:18;;;;;;;84.07;24.30;;;;;;;4.54;100.00;102747.47;5267225;28;20030;-73
2022/01/15 12:09:52;;;;;;;86.25;24.20;;;;;;;4.52;100.00;102744.03;5281571;27;20070;-73